Time;durP1;ratioP1;P1;durP2;ratioP2;P2;SDS_P1;SDS_P2;PMS_P1;PMS_P2;Temp;Humidity;BMP_temperature;BMP_pressure;BME280_temperature;BME280_humidity;BME280_pressure;Samples;Min_cycle;Max_cycle;Signal;HPM_P1;HPM_P2
2023/09/25 00:01:14;;;;;;;8.53;8.27;;;15.30;82.40;;;;;;4846854;29;20489;-83
2023/09/25 00:03:49;;;;;;;8.67;8.37;;;15.30;81.90;;;;;;4843156;29;20550;-83
2023/09/25 00:06:22;;;;;;;8.57;8.27;;;15.20;80.80;;;;;;4843331;29;20493;-81
2023/09/25 00:08:53;;;;;;;8.20;8.00;;;15.30;82.80;;;;;;4845147;29;20550;-82
2023/09/25 00:11:22;;;;;;;8.47;8.27;;;15.20;81.70;;;;;;4844034;29;20485;-84
2023/09/25 00:13:50;;;;;;;9.63;9.23;;;15.20;83.00;;;;;;4842806;29;20555;-81
2023/09/25 00:16:20;;;;;;;8.70;8.40;;;15.20;83.20;;;;;;4846672;29;20526;-82
2023/09/25 00:18:48;;;;;;;8.93;8.63;;;15.20;84.40;;;;;;4845311;29;20445;-82
2023/09/25 00:21:18;;;;;;;8.93;8.37;;;15.20;87.30;;;;;;4842445;29;20485;-82
2023/09/25 00:23:46;;;;;;;8.97;8.67;;;15.10;87.50;;;;;;4849014;29;20492;-81
2023/09/25 00:26:14;;;;;;;7.60;7.30;;;14.90;90.10;;;;;;4845354;29;20470;-80
2023/09/25 00:28:43;;;;;;;8.23;7.93;;;14.80;90.00;;;;;;4844400;29;20486;-83
2023/09/25 00:31:13;;;;;;;7.87;7.67;;;14.80;91.50;;;;;;4847575;29;20454;-85
2023/09/25 00:33:55;;;;;;;8.03;7.83;;;14.70;92.40;;;;;;4849544;29;20505;-86
2023/09/25 00:36:49;;;;;;;7.97;7.67;;;14.50;92.60;;;;;;4864696;29;20480;-83
2023/09/25 00:39:18;;;;;;;8.10;7.80;;;14.50;93.90;;;;;;4847701;29;20458;-84
2023/09/25 00:41:46;;;;;;;8.00;7.70;;;14.50;94.30;;;;;;4837492;29;20487;-80
2023/09/25 00:44:16;;;;;;;7.90;7.60;;;14.40;96.10;;;;;;4842363;29;21013;-84
2023/09/25 00:46:45;;;;;;;8.37;7.97;;;14.40;97.70;;;;;;4848308;29;20454;-82
2023/09/25 00:49:15;;;;;;;7.97;7.77;;;14.30;97.90;;;;;;4844966;29;20561;-84
2023/09/25 00:51:45;;;;;;;8.07;7.67;;;14.30;98.80;;;;;;4845500;29;20490;-84
2023/09/25 00:54:17;;;;;;;8.50;8.00;;;14.20;98.10;;;;;;4843790;29;20890;-82
2023/09/25 00:57:06;;;;;;;7.90;7.60;;;14.10;99.90;;;;;;4846914;29;20474;-85
2023/09/25 00:59:36;;;;;;;7.90;7.60;;;14.10;99.90;;;;;;4844016;29;20469;-84
2023/09/25 01:02:05;;;;;;;8.17;7.87;;;14.00;99.90;;;;;;4847026;29;20582;-87
2023/09/25 01:04:35;;;;;;;8.00;7.80;;;13.90;99.90;;;;;;4847782;29;20502;-87
2023/09/25 01:07:04;;;;;;;8.20;7.90;;;13.90;99.90;;;;;;4864692;29;20514;-83
2023/09/25 01:09:32;;;;;;;7.80;7.37;;;14.00;99.90;;;;;;4862503;29;20466;-85
2023/09/25 01:12:01;;;;;;;8.07;7.80;;;14.00;99.90;;;;;;4852436;29;20900;-85
2023/09/25 01:14:29;;;;;;;8.43;8.07;;;13.90;99.90;;;;;;4849096;29;20469;-86
2023/09/25 01:16:59;;;;;;;8.03;7.73;;;13.90;99.90;;;;;;4850480;29;20496;-84
2023/09/25 01:19:27;;;;;;;8.07;7.47;;;13.80;99.90;;;;;;4851266;29;21105;-80
2023/09/25 01:21:57;;;;;;;8.03;7.60;;;13.90;99.90;;;;;;4850881;29;20906;-83
2023/09/25 01:24:25;;;;;;;7.83;7.53;;;14.00;99.90;;;;;;4850271;29;20469;-84
2023/09/25 01:26:53;;;;;;;7.30;7.10;;;14.10;99.90;;;;;;4850928;29;20530;-82
2023/09/25 01:29:22;;;;;;;7.63;7.33;;;14.20;99.90;;;;;;4850177;29;20518;-85
2023/09/25 01:31:50;;;;;;;7.70;7.50;;;14.30;99.90;;;;;;4851529;29;20480;-84
2023/09/25 01:34:18;;;;;;;7.70;7.50;;;14.20;99.90;;;;;;4850299;29;20537;-81
2023/09/25 01:36:47;;;;;;;7.67;7.47;;;14.20;99.90;;;;;;4850969;29;20462;-84
2023/09/25 01:39:17;;;;;;;8.00;7.70;;;14.10;99.90;;;;;;4849425;29;20820;-84
2023/09/25 01:41:45;;;;;;;7.90;7.60;;;14.00;99.90;;;;;;4852245;29;20481;-85
2023/09/25 01:44:14;;;;;;;8.23;7.90;;;13.90;99.90;;;;;;4847313;29;20843;-83
2023/09/25 01:46:42;;;;;;;8.10;7.80;;;13.80;99.90;;;;;;4853074;29;20450;-84
2023/09/25 01:49:10;;;;;;;8.10;7.80;;;13.80;99.90;;;;;;4847875;29;20462;-86
2023/09/25 01:51:39;;;;;;;7.67;7.47;;;13.80;99.90;;;;;;4847818;29;20975;-84
2023/09/25 01:54:07;;;;;;;8.00;7.80;;;13.70;99.90;;;;;;4847082;29;21072;-82
2023/09/25 01:56:37;;;;;;;8.57;8.23;;;13.60;99.90;;;;;;4851874;29;21006;-82
2023/09/25 01:59:05;;;;;;;8.93;8.53;;;13.60;99.90;;;;;;4846840;29;20457;-80
2023/09/25 02:01:34;;;;;;;9.13;8.73;;;13.50;99.90;;;;;;4849069;29;20485;-86
2023/09/25 02:04:02;;;;;;;8.90;8.20;;;13.50;99.90;;;;;;4843269;29;20484;-81
2023/09/25 02:06:31;;;;;;;8.70;8.30;;;13.40;99.90;;;;;;4850853;29;20529;-83
2023/09/25 02:08:59;;;;;;;9.03;8.73;;;13.30;99.90;;;;;;4850251;29;20462;-84
2023/09/25 02:11:27;;;;;;;8.90;8.53;;;13.20;99.90;;;;;;4850434;29;20521;-85
2023/09/25 02:13:57;;;;;;;9.77;9.40;;;13.10;99.90;;;;;;4849667;29;20458;-84
2023/09/25 02:16:25;;;;;;;8.60;8.20;;;13.10;99.90;;;;;;4850568;29;20466;-83
2023/09/25 02:18:54;;;;;;;8.67;8.27;;;13.00;99.90;;;;;;4849577;29;21409;-83
2023/09/25 02:21:22;;;;;;;8.27;8.07;;;13.00;99.90;;;;;;4850402;29;20488;-83
2023/09/25 02:23:51;;;;;;;7.97;7.67;;;13.00;99.90;;;;;;4849558;29;20927;-85
2023/09/25 02:26:19;;;;;;;9.03;8.53;;;12.90;99.90;;;;;;4849087;29;20462;-85
2023/09/25 02:28:47;;;;;;;8.47;7.97;;;12.90;99.90;;;;;;4851619;29;21023;-83
2023/09/25 02:31:17;;;;;;;8.63;8.33;;;12.90;99.90;;;;;;4853673;29;21049;-83
2023/09/25 02:33:45;;;;;;;7.93;7.63;;;12.80;99.90;;;;;;4845679;29;20486;-80
2023/09/25 02:36:15;;;;;;;8.13;7.93;;;12.80;99.90;;;;;;4849975;29;20457;-81
2023/09/25 02:38:43;;;;;;;7.87;7.57;;;12.80;99.90;;;;;;4849532;29;20470;-84
2023/09/25 02:41:11;;;;;;;9.43;8.73;;;12.80;99.90;;;;;;4849188;29;20454;-86
2023/09/25 02:43:39;;;;;;;8.63;8.27;;;12.70;99.90;;;;;;4850241;29;20581;-85
2023/09/25 02:46:07;;;;;;;8.77;8.37;;;12.60;99.90;;;;;;4849871;29;21012;-85
2023/09/25 02:48:37;;;;;;;8.83;8.43;;;12.60;99.90;;;;;;4846645;29;20478;-83
2023/09/25 02:51:05;;;;;;;9.67;9.27;;;12.60;99.90;;;;;;4846819;29;20480;-84
2023/09/25 02:53:34;;;;;;;8.80;8.40;;;12.50;99.90;;;;;;4845334;29;20928;-85
2023/09/25 02:56:02;;;;;;;8.90;8.60;;;12.50;99.90;;;;;;4849496;29;20845;-85
2023/09/25 02:58:31;;;;;;;9.73;9.33;;;12.40;99.90;;;;;;4848039;29;20828;-81
2023/09/25 03:01:00;;;;;;;8.90;8.70;;;12.40;99.90;;;;;;4847682;29;20462;-84
2023/09/25 03:03:29;;;;;;;9.83;9.43;;;12.40;99.90;;;;;;4850681;29;20485;-83
2023/09/25 03:05:59;;;;;;;9.60;9.30;;;12.40;99.90;;;;;;4845188;29;20505;-86
2023/09/25 03:08:27;;;;;;;9.97;9.57;;;12.40;99.90;;;;;;4846266;29;20474;-81
2023/09/25 03:10:55;;;;;;;9.30;8.90;;;12.40;99.90;;;;;;4847147;29;20478;-82
2023/09/25 03:13:24;;;;;;;9.60;9.27;;;12.40;99.90;;;;;;4845086;29;20489;-84
2023/09/25 03:15:52;;;;;;;9.73;9.40;;;12.30;99.90;;;;;;4848536;29;20548;-87
2023/09/25 03:18:20;;;;;;;9.43;9.10;;;12.30;99.90;;;;;;4847540;29;20474;-83
2023/09/25 03:20:49;;;;;;;9.50;9.00;;;12.30;99.90;;;;;;4846399;29;20494;-82
2023/09/25 03:23:19;;;;;;;9.57;9.10;;;12.40;99.90;;;;;;4850497;29;21035;-81
2023/09/25 03:25:47;;;;;;;9.20;8.90;;;12.30;99.90;;;;;;4849386;29;20450;-83
2023/09/25 03:28:16;;;;;;;10.07;9.67;;;12.40;99.90;;;;;;4846611;29;20470;-83
2023/09/25 03:30:45;;;;;;;9.50;9.20;;;12.30;99.90;;;;;;4848221;29;20782;-84
2023/09/25 03:33:14;;;;;;;9.87;9.43;;;12.30;99.90;;;;;;4848994;29;20469;-84
2023/09/25 03:35:42;;;;;;;9.10;8.80;;;12.30;99.90;;;;;;4846544;29;20464;-82
2023/09/25 03:38:10;;;;;;;9.43;9.03;;;12.20;99.90;;;;;;4851170;29;20545;-87
2023/09/25 03:40:40;;;;;;;9.73;9.23;;;12.00;99.90;;;;;;4848683;29;20461;-83
2023/09/25 03:43:08;;;;;;;9.87;9.40;;;12.10;99.90;;;;;;4851249;29;20486;-86
2023/09/25 03:45:36;;;;;;;9.27;8.83;;;12.10;99.90;;;;;;4848655;29;20495;-85
2023/09/25 03:48:07;;;;;;;9.53;9.17;;;12.10;99.90;;;;;;4848535;29;20453;-83
2023/09/25 03:50:36;;;;;;;9.40;9.00;;;12.10;99.90;;;;;;4844689;29;20483;-89
2023/09/25 03:53:04;;;;;;;9.63;9.23;;;12.10;99.90;;;;;;4851178;29;20473;-83
2023/09/25 03:55:32;;;;;;;9.73;9.27;;;12.20;99.90;;;;;;4847390;29;20556;-85
2023/09/25 03:58:05;;;;;;;9.37;9.07;;;12.10;99.90;;;;;;4848104;29;20500;-83
2023/09/25 04:00:33;;;;;;;9.47;9.10;;;12.00;99.90;;;;;;4844953;29;20475;-85
2023/09/25 04:03:02;;;;;;;9.50;9.00;;;12.00;99.90;;;;;;4842952;29;20493;-86
2023/09/25 04:05:32;;;;;;;9.67;9.27;;;12.10;99.90;;;;;;4845847;29;20469;-83
2023/09/25 04:08:01;;;;;;;9.87;9.50;;;12.10;99.90;;;;;;4848210;29;20458;-83
2023/09/25 04:10:29;;;;;;;10.63;10.23;;;12.00;99.90;;;;;;4846202;29;20462;-84
2023/09/25 04:12:58;;;;;;;9.47;9.07;;;11.90;99.90;;;;;;4842742;29;20478;-83
2023/09/25 04:15:31;;;;;;;9.73;9.30;;;12.00;99.90;;;;;;4849443;29;20524;-85
2023/09/25 04:18:00;;;;;;;9.60;9.20;;;11.90;99.90;;;;;;4849496;29;20473;-83
2023/09/25 04:20:31;;;;;;;10.23;9.82;;;11.90;99.90;;;;;;4844808;29;20525;-86
2023/09/25 04:23:00;;;;;;;9.97;9.50;;;11.60;99.90;;;;;;4862132;29;20232;-82
2023/09/25 04:25:28;;;;;;;10.97;10.37;;;11.80;99.90;;;;;;4845882;29;20501;-83
2023/09/25 04:27:57;;;;;;;9.67;9.37;;;11.80;99.90;;;;;;4845905;29;20450;-81
2023/09/25 04:30:25;;;;;;;10.10;9.80;;;11.80;99.90;;;;;;4845930;29;20485;-84
2023/09/25 04:32:55;;;;;;;9.37;8.97;;;11.80;99.90;;;;;;4842367;29;20509;-82
2023/09/25 04:35:25;;;;;;;9.80;9.40;;;11.80;99.90;;;;;;4835318;29;20462;-80
2023/09/25 04:37:54;;;;;;;10.00;9.60;;;11.60;99.90;;;;;;4840501;29;20546;-84
2023/09/25 04:40:23;;;;;;;10.87;10.03;;;11.50;99.90;;;;;;4842118;29;20793;-81
2023/09/25 04:42:52;;;;;;;9.30;9.00;;;11.50;99.90;;;;;;4838170;29;20878;-80
2023/09/25 04:45:21;;;;;;;10.13;9.70;;;11.50;99.90;;;;;;4842212;29;20457;-81
2023/09/25 04:47:52;;;;;;;9.50;9.10;;;11.60;99.90;;;;;;4843488;29;20558;-81
2023/09/25 04:50:23;;;;;;;10.17;9.57;;;11.60;99.90;;;;;;4843770;29;20454;-82
2023/09/25 04:52:51;;;;;;;9.40;9.00;;;11.70;99.90;;;;;;4845876;29;20536;-80
2023/09/25 04:55:20;;;;;;;10.10;9.40;;;11.60;99.90;;;;;;4841832;29;20470;-80
2023/09/25 04:57:48;;;;;;;9.90;9.50;;;11.60;99.90;;;;;;4836654;29;20556;-81
2023/09/25 05:00:18;;;;;;;10.50;9.90;;;11.60;99.90;;;;;;4842423;29;20469;-82
2023/09/25 05:02:47;;;;;;;10.37;9.60;;;11.50;99.90;;;;;;4835789;29;20528;-81
2023/09/25 05:05:16;;;;;;;9.90;9.50;;;11.50;99.90;;;;;;4843901;29;20547;-81
2023/09/25 05:07:48;;;;;;;9.57;9.27;;;11.50;99.90;;;;;;4844892;29;20480;-81
2023/09/25 05:10:17;;;;;;;10.20;9.90;;;11.30;99.90;;;;;;4838978;29;20470;-81
2023/09/25 05:12:46;;;;;;;10.33;9.93;;;11.30;99.90;;;;;;4838720;29;20488;-79
2023/09/25 05:15:15;;;;;;;10.30;9.90;;;11.40;99.90;;;;;;4842101;29;20518;-81
2023/09/25 05:17:44;;;;;;;10.40;9.90;;;11.50;99.90;;;;;;4841775;29;20466;-80
2023/09/25 05:20:15;;;;;;;9.77;9.37;;;11.50;99.90;;;;;;4844026;29;20476;-80
2023/09/25 05:22:47;;;;;;;9.90;9.50;;;11.40;99.90;;;;;;4837804;29;20504;-80
2023/09/25 05:25:16;;;;;;;9.80;9.40;;;11.40;99.90;;;;;;4844558;29;20465;-81
2023/09/25 05:27:46;;;;;;;9.90;9.50;;;11.40;99.90;;;;;;4844074;29;20485;-82
2023/09/25 05:30:17;;;;;;;9.70;9.33;;;11.50;99.90;;;;;;4842660;29;20996;-81
2023/09/25 05:32:48;;;;;;;10.00;9.60;;;11.50;99.90;;;;;;4842436;29;20481;-79
2023/09/25 05:35:17;;;;;;;10.23;9.83;;;11.50;99.90;;;;;;4843456;29;20458;-81
2023/09/25 05:37:48;;;;;;;9.60;9.30;;;11.40;99.90;;;;;;4844576;29;20484;-82
2023/09/25 05:40:18;;;;;;;10.00;9.60;;;11.40;99.90;;;;;;4844432;29;20971;-82
2023/09/25 05:42:48;;;;;;;10.00;9.50;;;11.40;99.90;;;;;;4846535;29;20473;-79
2023/09/25 05:45:20;;;;;;;9.67;9.30;;;11.50;99.90;;;;;;4841863;29;21035;-82
2023/09/25 05:47:48;;;;;;;10.37;9.90;;;11.40;99.90;;;;;;4844245;29;20482;-83
2023/09/25 05:50:17;;;;;;;10.13;9.63;;;11.40;99.90;;;;;;4844568;29;20461;-81
2023/09/25 05:52:47;;;;;;;10.10;9.70;;;11.40;99.90;;;;;;4845891;29;20580;-82
2023/09/25 05:55:15;;;;;;;10.33;9.83;;;11.50;99.90;;;;;;4844816;29;20466;-81
2023/09/25 05:57:43;;;;;;;10.83;10.37;;;11.50;99.90;;;;;;4846082;29;20533;-83
2023/09/25 06:00:12;;;;;;;11.20;10.37;;;11.50;99.90;;;;;;4844637;29;20540;-81
2023/09/25 06:02:41;;;;;;;10.60;10.00;;;11.50;99.90;;;;;;4840552;29;21003;-82
2023/09/25 06:05:12;;;;;;;9.00;8.70;;;11.50;99.90;;;;;;4842658;29;20462;-81
2023/09/25 06:07:42;;;;;;;10.00;9.63;;;11.50;99.90;;;;;;4844747;29;20529;-80
2023/09/25 06:10:12;;;;;;;9.80;9.47;;;11.60;99.90;;;;;;4844671;29;20592;-81
2023/09/25 06:12:41;;;;;;;11.13;10.53;;;11.60;99.90;;;;;;4843644;29;20481;-81
2023/09/25 06:15:12;;;;;;;9.67;9.27;;;11.60;99.90;;;;;;4843590;29;20465;-80
2023/09/25 06:17:42;;;;;;;10.23;9.70;;;11.80;99.90;;;;;;4843700;29;20454;-81
2023/09/25 06:20:15;;;;;;;10.20;9.60;;;12.00;99.90;;;;;;4844476;29;20501;-81
2023/09/25 06:22:46;;;;;;;10.00;9.60;;;12.00;99.90;;;;;;4840538;29;20547;-81
2023/09/25 06:25:17;;;;;;;10.00;9.60;;;12.10;99.90;;;;;;4842712;29;20492;-81
2023/09/25 06:27:47;;;;;;;10.80;10.20;;;12.10;99.90;;;;;;4843180;29;20465;-80
2023/09/25 06:30:19;;;;;;;11.87;11.30;;;12.20;99.90;;;;;;4845512;29;20469;-83
2023/09/25 06:32:47;;;;;;;11.33;10.57;;;12.30;99.90;;;;;;4843773;29;20482;-81
2023/09/25 06:35:15;;;;;;;11.50;11.10;;;12.30;99.90;;;;;;4842070;29;20541;-81
2023/09/25 06:37:44;;;;;;;11.90;11.20;;;12.30;99.90;;;;;;4843241;29;20553;-80
2023/09/25 06:40:15;;;;;;;11.40;10.90;;;12.40;99.90;;;;;;4834353;29;21002;-81
2023/09/25 06:42:46;;;;;;;11.13;10.63;;;12.30;99.90;;;;;;4843383;29;20524;-80
2023/09/25 06:45:14;;;;;;;10.67;10.17;;;12.30;99.90;;;;;;4843808;29;20493;-82
2023/09/25 06:47:46;;;;;;;11.23;10.73;;;12.50;99.90;;;;;;4845038;29;20462;-81
2023/09/25 06:50:16;;;;;;;11.77;11.17;;;12.60;99.90;;;;;;4835348;29;20562;-81
2023/09/25 06:52:44;;;;;;;11.53;11.10;;;12.60;99.90;;;;;;4839923;29;20597;-80
2023/09/25 06:55:12;;;;;;;11.00;10.60;;;12.70;99.90;;;;;;4839191;29;20450;-79
2023/09/25 06:57:40;;;;;;;12.37;11.60;;;12.70;99.90;;;;;;4831812;29;20522;-79
2023/09/25 07:00:11;;;;;;;11.80;11.30;;;12.80;99.90;;;;;;4839218;29;20466;-81
2023/09/25 07:02:40;;;;;;;11.43;10.87;;;12.90;99.90;;;;;;4840146;29;20550;-81
2023/09/25 07:05:09;;;;;;;11.30;10.90;;;13.10;99.90;;;;;;4840404;29;20858;-80
2023/09/25 07:07:38;;;;;;;11.90;11.30;;;13.10;99.90;;;;;;4830957;29;20458;-81
2023/09/25 07:10:09;;;;;;;12.47;11.73;;;13.20;99.90;;;;;;4840848;29;20458;-80
2023/09/25 07:12:38;;;;;;;12.27;11.47;;;13.30;99.90;;;;;;4838278;29;20573;-81
2023/09/25 07:15:11;;;;;;;11.97;11.37;;;13.40;99.90;;;;;;4838730;29;20465;-81
2023/09/25 07:17:40;;;;;;;12.13;11.63;;;13.50;99.90;;;;;;4833947;29;20476;-79
2023/09/25 07:20:09;;;;;;;11.90;11.50;;;13.30;99.90;;;;;;4838864;29;20454;-78
2023/09/25 07:22:38;;;;;;;11.83;11.27;;;13.60;99.90;;;;;;4839698;29;20489;-78
2023/09/25 07:25:06;;;;;;;12.60;12.10;;;13.70;99.90;;;;;;4841210;29;20496;-80
2023/09/25 07:27:35;;;;;;;12.53;12.03;;;13.80;99.90;;;;;;4841853;29;20907;-81
2023/09/25 07:30:06;;;;;;;11.60;11.30;;;13.90;99.90;;;;;;4841171;29;20466;-82
2023/09/25 07:32:37;;;;;;;12.37;11.87;;;14.00;99.90;;;;;;4840874;29;20564;-81
2023/09/25 07:35:09;;;;;;;13.40;12.57;;;14.10;99.90;;;;;;4830966;29;20518;-79
2023/09/25 07:37:41;;;;;;;13.17;12.27;;;14.20;99.90;;;;;;4835415;29;20505;-79
2023/09/25 07:40:11;;;;;;;13.27;12.50;;;14.20;99.90;;;;;;4853263;29;20564;-80
2023/09/25 07:42:39;;;;;;;13.23;12.83;;;14.50;99.90;;;;;;4839340;29;20510;-80
2023/09/25 07:45:11;;;;;;;13.60;12.60;;;14.80;99.90;;;;;;4838323;29;20892;-81
2023/09/25 07:47:41;;;;;;;13.33;12.73;;;15.10;99.90;;;;;;4840249;29;20473;-79
2023/09/25 07:50:11;;;;;;;13.93;13.03;;;15.60;99.90;;;;;;4840479;29;20454;-80
2023/09/25 07:52:39;;;;;;;13.97;13.27;;;16.10;99.90;;;;;;4839694;29;21197;-82
2023/09/25 07:55:11;;;;;;;13.90;13.10;;;16.70;99.90;;;;;;4840955;29;20549;-83
2023/09/25 07:57:42;;;;;;;14.73;13.93;;;17.10;99.90;;;;;;4841407;29;20489;-81
2023/09/25 08:00:15;;;;;;;12.63;12.13;;;17.60;99.90;;;;;;4841818;29;20929;-80
2023/09/25 08:02:47;;;;;;;13.20;12.70;;;18.10;99.90;;;;;;4840561;29;20489;-81
2023/09/25 08:05:18;;;;;;;13.37;12.77;;;18.50;99.90;;;;;;4837259;29;21037;-81
2023/09/25 08:07:46;;;;;;;13.10;12.50;;;19.00;99.90;;;;;;4842279;29;20466;-83
2023/09/25 08:10:15;;;;;;;12.80;12.30;;;19.40;99.90;;;;;;4842110;29;20592;-81
2023/09/25 08:12:43;;;;;;;12.07;11.67;;;19.70;99.90;;;;;;4839863;29;20565;-85
2023/09/25 08:15:12;;;;;;;12.27;11.90;;;20.10;99.90;;;;;;4839638;29;20466;-84
2023/09/25 08:17:46;;;;;;;13.10;12.60;;;20.40;99.90;;;;;;4841417;29;20461;-81
2023/09/25 08:20:20;;;;;;;11.90;11.60;;;20.60;99.90;;;;;;4840078;29;20496;-82
2023/09/25 08:22:50;;;;;;;11.20;10.90;;;21.10;99.90;;;;;;4842684;29;20252;-82
2023/09/25 08:25:19;;;;;;;12.00;11.50;;;21.30;99.90;;;;;;4836225;29;20477;-83
2023/09/25 08:27:48;;;;;;;11.30;10.90;;;21.60;99.90;;;;;;4847354;29;20493;-81
2023/09/25 08:30:16;;;;;;;11.10;10.80;;;21.90;99.90;;;;;;4830731;29;20574;-83
2023/09/25 08:32:46;;;;;;;12.30;11.80;;;22.00;99.90;;;;;;4859145;29;20928;-82
2023/09/25 08:35:14;;;;;;;12.20;11.73;;;22.20;99.90;;;;;;4842979;29;20501;-83
2023/09/25 08:37:43;;;;;;;11.53;11.20;;;22.60;99.90;;;;;;4844506;29;20463;-81
2023/09/25 08:40:13;;;;;;;12.40;11.90;;;22.70;99.90;;;;;;4855434;29;21007;-82
2023/09/25 08:42:48;;;;;;;11.40;11.10;;;22.90;99.90;;;;;;4841402;29;20477;-82
2023/09/25 08:45:28;;;;;;;11.60;11.20;;;23.10;99.90;;;;;;4841301;29;20969;-81
2023/09/25 08:47:58;;;;;;;11.40;11.10;;;23.30;99.90;;;;;;4841634;29;20462;-80
2023/09/25 08:50:26;;;;;;;11.40;11.10;;;23.20;99.90;;;;;;4842913;29;21327;-82
2023/09/25 08:52:56;;;;;;;11.37;11.07;;;23.60;99.90;;;;;;4840952;29;20489;-82
2023/09/25 08:55:26;;;;;;;11.10;10.80;;;23.70;99.90;;;;;;4842512;29;20466;-81
2023/09/25 08:57:54;;;;;;;11.30;10.90;;;23.90;99.90;;;;;;4839418;29;20833;-81
2023/09/25 09:00:25;;;;;;;11.17;10.70;;;23.70;99.90;;;;;;4839058;29;20500;-80
2023/09/25 09:02:53;;;;;;;11.10;10.80;;;24.20;99.90;;;;;;4833864;29;20561;-81
2023/09/25 09:05:23;;;;;;;10.93;10.63;;;24.50;99.90;;;;;;4836524;29;20500;-80
2023/09/25 09:07:58;;;;;;;11.47;11.07;;;24.80;99.90;;;;;;4845555;29;20563;-81
2023/09/25 09:10:30;;;;;;;10.90;10.57;;;25.20;99.90;;;;;;4840260;29;20472;-83
2023/09/25 09:13:08;;;;;;;11.37;10.87;;;25.60;99.90;;;;;;4842184;29;20546;-82
2023/09/25 09:15:38;;;;;;;11.30;11.00;;;25.50;99.90;;;;;;4840894;29;20518;-81
2023/09/25 09:18:20;;;;;;;10.73;10.37;;;26.00;99.90;;;;;;4841597;29;20449;-82
2023/09/25 09:20:56;;;;;;;10.50;10.20;;;26.20;99.90;;;;;;4837519;29;21314;-83
2023/09/25 09:23:41;;;;;;;11.37;10.87;;;26.40;99.90;;;;;;4837902;29;20494;-81
2023/09/25 09:26:12;;;;;;;10.30;9.90;;;26.80;99.90;;;;;;4842951;29;20537;-83
2023/09/25 09:28:42;;;;;;;10.40;10.00;;;27.10;99.90;;;;;;4841637;29;20470;-81
2023/09/25 09:31:10;;;;;;;10.40;10.10;;;27.80;99.90;;;;;;4837361;29;20470;-80
2023/09/25 09:33:41;;;;;;;10.23;9.93;;;28.30;99.90;;;;;;4844257;29;20487;-81
2023/09/25 09:36:12;;;;;;;9.20;9.00;;;28.30;99.90;;;;;;4833996;29;20492;-82
2023/09/25 09:38:41;;;;;;;9.47;9.07;;;28.30;99.90;;;;;;4843806;29;20519;-82
2023/09/25 09:41:10;;;;;;;9.27;8.97;;;27.90;99.90;;;;;;4845897;29;20982;-82
2023/09/25 09:43:38;;;;;;;9.83;9.53;;;27.90;99.90;;;;;;4840362;29;20496;-81
2023/09/25 09:46:10;;;;;;;9.90;9.50;;;28.20;99.90;;;;;;4842531;29;20556;-82
2023/09/25 09:48:40;;;;;;;9.30;9.10;;;28.30;99.90;;;;;;4842150;29;20471;-80
2023/09/25 09:51:13;;;;;;;9.17;8.87;;;28.40;99.90;;;;;;4841592;29;20469;-82
2023/09/25 09:53:41;;;;;;;9.80;9.50;;;28.10;99.90;;;;;;4843404;29;21002;-80
2023/09/25 09:56:11;;;;;;;10.10;9.73;;;27.00;99.90;;;;;;4845392;29;20843;-83
2023/09/25 09:58:39;;;;;;;9.30;9.00;;;26.10;99.90;;;;;;4843361;29;20461;-81
2023/09/25 10:01:07;;;;;;;9.73;9.43;;;25.40;99.90;;;;;;4839581;29;21300;-82
2023/09/25 10:03:36;;;;;;;9.87;9.57;;;24.90;99.90;;;;;;4846229;29;20578;-81
2023/09/25 10:06:05;;;;;;;9.23;9.03;;;24.50;99.90;;;;;;4847866;29;20473;-83
2023/09/25 10:08:35;;;;;;;10.13;9.73;;;24.10;99.90;;;;;;4846508;29;20473;-83
2023/09/25 10:11:16;;;;;;;9.30;9.10;;;23.90;99.90;;;;;;4845023;29;20552;-84
2023/09/25 10:13:44;;;;;;;9.60;9.30;;;23.90;99.90;;;;;;4846028;29;20497;-81
2023/09/25 10:16:15;;;;;;;9.80;9.40;;;23.90;99.90;;;;;;4846870;29;20469;-82
2023/09/25 10:18:44;;;;;;;9.97;9.67;;;24.10;99.90;;;;;;4846726;29;20476;-82
2023/09/25 10:21:14;;;;;;;9.77;9.47;;;24.00;99.90;;;;;;4845346;29;20489;-82
2023/09/25 10:23:48;;;;;;;9.90;9.70;;;23.80;99.90;;;;;;4846269;29;20534;-82
2023/09/25 10:26:18;;;;;;;9.93;9.63;;;23.80;99.90;;;;;;4846392;29;20487;-80
2023/09/25 10:28:56;;;;;;;10.23;9.83;;;23.80;99.90;;;;;;4847066;29;20457;-82
2023/09/25 10:31:29;;;;;;;9.00;8.77;;;23.90;99.90;;;;;;4846615;29;20534;-83
2023/09/25 10:33:59;;;;;;;9.57;9.27;;;23.80;99.90;;;;;;4843919;29;21063;-80
2023/09/25 10:36:39;;;;;;;9.00;8.70;;;24.20;99.90;;;;;;4845803;29;21497;-82
2023/09/25 10:39:09;;;;;;;9.80;9.53;;;24.30;99.90;;;;;;4845007;29;20609;-82
2023/09/25 10:41:38;;;;;;;9.63;9.33;;;24.60;99.90;;;;;;4852566;29;20473;-80
2023/09/25 10:44:06;;;;;;;9.43;9.13;;;24.80;99.90;;;;;;4854022;29;20503;-81
2023/09/25 10:46:35;;;;;;;9.70;9.40;;;25.10;99.90;;;;;;4851617;29;20490;-81
2023/09/25 10:49:03;;;;;;;10.07;9.77;;;25.20;99.90;;;;;;4851983;29;20901;-80
2023/09/25 10:51:32;;;;;;;10.40;10.00;;;25.30;99.90;;;;;;4852790;29;20526;-83
2023/09/25 10:54:02;;;;;;;9.80;9.57;;;25.40;99.90;;;;;;4848646;29;20586;-82
2023/09/25 10:56:33;;;;;;;10.27;9.90;;;25.60;99.90;;;;;;4851888;29;20456;-80
2023/09/25 10:59:02;;;;;;;9.80;9.50;;;25.70;99.90;;;;;;4849520;29;20548;-81
2023/09/25 11:01:32;;;;;;;9.97;9.67;;;25.80;99.90;;;;;;4849058;29;20977;-80
2023/09/25 11:04:01;;;;;;;9.87;9.67;;;25.90;99.90;;;;;;4845847;29;20497;-82
2023/09/25 11:06:30;;;;;;;9.73;9.43;;;26.10;99.90;;;;;;4848401;29;20486;-82
2023/09/25 11:08:59;;;;;;;9.30;9.10;;;26.60;99.90;;;;;;4847003;29;21370;-82
2023/09/25 11:11:29;;;;;;;9.27;9.00;;;27.00;99.90;;;;;;4847117;29;20566;-81
2023/09/25 11:13:59;;;;;;;9.63;9.33;;;27.30;99.90;;;;;;4847897;29;20522;-83
2023/09/25 11:16:29;;;;;;;9.20;8.90;;;27.50;99.90;;;;;;4843947;29;20455;-81
2023/09/25 11:19:12;;;;;;;8.90;8.70;;;27.30;99.90;;;;;;4847432;29;20545;-79
2023/09/25 11:21:41;;;;;;;9.00;8.50;;;26.00;99.90;;;;;;4843906;29;20485;-81
2023/09/25 11:24:10;;;;;;;8.80;8.60;;;25.40;99.90;;;;;;4843499;29;20470;-83
2023/09/25 11:26:39;;;;;;;8.53;8.33;;;25.00;99.90;;;;;;4846983;29;20515;-83
2023/09/25 11:29:09;;;;;;;8.73;8.53;;;24.60;99.90;;;;;;4843613;29;21375;-80
2023/09/25 11:31:40;;;;;;;9.03;8.83;;;24.40;99.90;;;;;;4846797;29;20473;-81
2023/09/25 11:34:31;;;;;;;9.10;8.70;;;24.20;99.90;;;;;;4847907;29;20496;-84
2023/09/25 11:41:25;;;;;;;9.47;9.17;;;24.00;99.90;;;;;;4845523;29;20450;-82
2023/09/25 11:43:53;;;;;;;9.43;9.13;;;23.80;99.90;;;;;;4845738;29;20594;-81
2023/09/25 11:46:23;;;;;;;8.60;8.30;;;23.80;99.90;;;;;;4846044;29;20488;-82
2023/09/25 11:48:51;;;;;;;8.90;8.70;;;23.70;99.90;;;;;;4841663;29;20461;-80
2023/09/25 11:51:21;;;;;;;10.10;9.80;;;23.50;99.90;;;;;;4846013;29;20549;-81
2023/09/25 11:53:52;;;;;;;9.63;9.20;;;23.50;99.90;;;;;;4845574;29;20569;-83
2023/09/25 11:56:31;;;;;;;;;;;;;;;;;;;;;
2023/09/25 11:59:44;;;;;;;9.43;9.03;;;23.60;99.90;;;;;;4841894;29;21533;-83
2023/09/25 12:02:13;;;;;;;9.90;9.50;;;23.60;99.90;;;;;;4854274;23;20573;-81
2023/09/25 12:04:45;;;;;;;9.40;9.10;;;23.60;99.90;;;;;;4864084;29;20877;-80
2023/09/25 12:07:14;;;;;;;9.47;8.97;;;23.60;99.90;;;;;;4860588;29;20533;-79
2023/09/25 12:09:42;;;;;;;8.93;8.63;;;23.60;99.90;;;;;;4862225;29;20476;-81
2023/09/25 12:12:10;;;;;;;9.00;8.70;;;23.30;99.90;;;;;;4858095;29;20483;-80
2023/09/25 12:14:38;;;;;;;10.63;9.60;;;23.40;99.90;;;;;;4853665;29;20536;-81
2023/09/25 12:17:07;;;;;;;9.43;9.10;;;23.40;99.90;;;;;;4848045;29;20465;-82
2023/09/25 12:19:38;;;;;;;9.17;8.97;;;23.40;99.90;;;;;;4853348;29;20462;-84
2023/09/25 12:22:07;;;;;;;9.50;9.07;;;23.40;99.90;;;;;;4855360;29;20495;-82
2023/09/25 12:24:35;;;;;;;9.30;8.80;;;23.50;99.90;;;;;;4848651;29;20465;-81
2023/09/25 12:27:04;;;;;;;9.63;9.20;;;23.30;99.90;;;;;;4852845;29;20490;-83
2023/09/25 12:29:32;;;;;;;9.70;9.10;;;23.30;99.90;;;;;;4851903;29;20461;-83
2023/09/25 12:32:00;;;;;;;9.40;9.10;;;23.40;99.90;;;;;;4848279;29;21204;-82
2023/09/25 12:34:28;;;;;;;9.53;9.23;;;23.50;99.90;;;;;;4848367;29;21388;-82
2023/09/25 12:36:57;;;;;;;9.00;8.67;;;23.50;99.90;;;;;;4855079;29;20465;-84
2023/09/25 12:39:26;;;;;;;9.30;9.00;;;23.60;99.90;;;;;;4852696;29;21170;-84
2023/09/25 12:41:54;;;;;;;9.10;8.50;;;23.50;99.90;;;;;;4849660;29;20546;-82
2023/09/25 12:44:36;;;;;;;9.40;8.80;;;23.40;99.90;;;;;;4849916;29;20463;-83
2023/09/25 12:47:07;;;;;;;8.50;8.30;;;23.40;99.90;;;;;;4853910;29;20493;-80
2023/09/25 12:49:35;;;;;;;9.43;9.13;;;23.40;99.90;;;;;;4849620;29;20856;-82
2023/09/25 12:52:05;;;;;;;9.17;8.93;;;23.50;99.90;;;;;;4851393;29;20485;-82
2023/09/25 12:54:33;;;;;;;9.00;8.80;;;23.60;99.90;;;;;;4854491;29;20474;-83
2023/09/25 12:57:01;;;;;;;9.80;9.40;;;23.40;99.90;;;;;;4849307;29;20840;-83
2023/09/25 12:59:30;;;;;;;9.60;9.10;;;23.20;99.90;;;;;;4850904;29;20528;-84